sensor_id;sensor_type;location;lat;lon;timestamp;pressure;altitude;pressure_sealevel;temperature;humidity
61742;BME280;47650;49.848;9.620;2022-08-30T00:00:42;99963.66;;;15.65;52.74
61742;BME280;47650;49.848;9.620;2022-08-30T00:03:26;99956.97;;;15.60;52.82
61742;BME280;47650;49.848;9.620;2022-08-30T00:05:53;99952.97;;;15.56;52.77
61742;BME280;47650;49.848;9.620;2022-08-30T00:08:20;99957.00;;;15.52;53.00
61742;BME280;47650;49.848;9.620;2022-08-30T00:10:46;99960.50;;;15.53;53.03
61742;BME280;47650;49.848;9.620;2022-08-30T00:13:15;99958.16;;;15.50;53.21
61742;BME280;47650;49.848;9.620;2022-08-30T00:15:41;99954.34;;;15.44;53.27
61742;BME280;47650;49.848;9.620;2022-08-30T00:18:07;99959.69;;;15.44;53.26
61742;BME280;47650;49.848;9.620;2022-08-30T00:20:33;99928.16;;;15.23;53.37
61742;BME280;47650;49.848;9.620;2022-08-30T00:23:00;99942.00;;;15.35;53.58
61742;BME280;47650;49.848;9.620;2022-08-30T00:25:25;99954.00;;;15.39;53.49
61742;BME280;47650;49.848;9.620;2022-08-30T00:27:51;99950.00;;;15.35;53.35
61742;BME280;47650;49.848;9.620;2022-08-30T00:30:17;99941.66;;;15.21;53.10
61742;BME280;47650;49.848;9.620;2022-08-30T00:32:42;99957.00;;;15.28;53.30
61742;BME280;47650;49.848;9.620;2022-08-30T00:35:12;99952.69;;;15.27;53.53
61742;BME280;47650;49.848;9.620;2022-08-30T00:37:38;99963.03;;;15.21;53.94
61742;BME280;47650;49.848;9.620;2022-08-30T00:40:04;99957.03;;;15.19;54.04
61742;BME280;47650;49.848;9.620;2022-08-30T00:42:30;99959.38;;;15.14;53.86
61742;BME280;47650;49.848;9.620;2022-08-30T00:44:56;99960.34;;;15.13;54.25
61742;BME280;47650;49.848;9.620;2022-08-30T00:47:22;99934.97;;;14.93;54.26
61742;BME280;47650;49.848;9.620;2022-08-30T00:49:50;99931.47;;;14.92;54.28
61742;BME280;47650;49.848;9.620;2022-08-30T00:52:20;99955.34;;;15.02;54.52
61742;BME280;47650;49.848;9.620;2022-08-30T00:54:46;99950.81;;;14.94;54.32
61742;BME280;47650;49.848;9.620;2022-08-30T00:57:13;99961.19;;;14.97;54.44
61742;BME280;47650;49.848;9.620;2022-08-30T00:59:40;99969.66;;;14.93;54.63
61742;BME280;47650;49.848;9.620;2022-08-30T01:02:07;99958.66;;;14.88;54.70
61742;BME280;47650;49.848;9.620;2022-08-30T01:04:34;99940.78;;;14.72;54.93
61742;BME280;47650;49.848;9.620;2022-08-30T01:07:00;99957.81;;;14.79;54.89
61742;BME280;47650;49.848;9.620;2022-08-30T01:09:25;99933.09;;;14.60;54.89
61742;BME280;47650;49.848;9.620;2022-08-30T01:11:51;99930.22;;;14.54;55.29
61742;BME280;47650;49.848;9.620;2022-08-30T01:14:17;99946.88;;;14.56;55.55
61742;BME280;47650;49.848;9.620;2022-08-30T01:16:45;99968.66;;;14.69;55.70
61742;BME280;47650;49.848;9.620;2022-08-30T01:19:40;99965.13;;;14.60;55.77
61742;BME280;47650;49.848;9.620;2022-08-30T01:25:10;99974.94;;;14.60;56.30
61742;BME280;47650;49.848;9.620;2022-08-30T01:27:42;99976.41;;;14.54;56.81
61742;BME280;47650;49.848;9.620;2022-08-30T01:30:09;99983.56;;;14.54;56.87
61742;BME280;47650;49.848;9.620;2022-08-30T01:32:43;99977.53;;;14.52;56.76
61742;BME280;47650;49.848;9.620;2022-08-30T01:35:13;99984.88;;;14.49;56.84
61742;BME280;47650;49.848;9.620;2022-08-30T01:37:39;99985.22;;;14.46;56.96
61742;BME280;47650;49.848;9.620;2022-08-30T01:40:06;99968.31;;;14.29;57.05
61742;BME280;47650;49.848;9.620;2022-08-30T01:42:31;99937.72;;;14.07;56.82
61742;BME280;47650;49.848;9.620;2022-08-30T01:44:59;99961.09;;;14.22;56.90
61742;BME280;47650;49.848;9.620;2022-08-30T01:47:25;99982.84;;;14.35;56.88
61742;BME280;47650;49.848;9.620;2022-08-30T01:49:51;99982.16;;;14.33;56.76
61742;BME280;47650;49.848;9.620;2022-08-30T01:52:19;99985.16;;;14.30;56.77
61742;BME280;47650;49.848;9.620;2022-08-30T01:54:45;99985.47;;;14.27;56.98
61742;BME280;47650;49.848;9.620;2022-08-30T01:57:14;99983.81;;;14.26;56.88
61742;BME280;47650;49.848;9.620;2022-08-30T01:59:42;99977.09;;;14.22;56.98
61742;BME280;47650;49.848;9.620;2022-08-30T02:02:12;99963.72;;;14.05;56.74
61742;BME280;47650;49.848;9.620;2022-08-30T02:04:38;99976.38;;;14.11;56.87
61742;BME280;47650;49.848;9.620;2022-08-30T02:07:04;99979.72;;;14.05;57.27
61742;BME280;47650;49.848;9.620;2022-08-30T02:09:30;99973.72;;;14.03;57.26
61742;BME280;47650;49.848;9.620;2022-08-30T02:11:56;99970.69;;;13.98;57.68
61742;BME280;47650;49.848;9.620;2022-08-30T02:14:21;99971.00;;;13.95;58.03
61742;BME280;47650;49.848;9.620;2022-08-30T02:16:46;99965.25;;;13.82;57.87
61742;BME280;47650;49.848;9.620;2022-08-30T02:19:12;99971.09;;;13.85;58.26
61742;BME280;47650;49.848;9.620;2022-08-30T02:21:38;99969.63;;;13.91;58.16
61742;BME280;47650;49.848;9.620;2022-08-30T02:24:03;99977.25;;;13.86;58.46
61742;BME280;47650;49.848;9.620;2022-08-30T02:26:29;99966.44;;;13.87;58.09
61742;BME280;47650;49.848;9.620;2022-08-30T02:28:54;99970.25;;;13.85;58.10
61742;BME280;47650;49.848;9.620;2022-08-30T02:31:20;99967.91;;;13.82;58.25
61742;BME280;47650;49.848;9.620;2022-08-30T02:33:49;99947.84;;;13.69;58.39
61742;BME280;47650;49.848;9.620;2022-08-30T02:36:15;99964.56;;;13.80;59.03
61742;BME280;47650;49.848;9.620;2022-08-30T02:38:40;99923.22;;;13.49;58.54
61742;BME280;47650;49.848;9.620;2022-08-30T02:41:05;99953.03;;;13.71;58.50
61742;BME280;47650;49.848;9.620;2022-08-30T02:43:31;99956.50;;;13.71;58.39
61742;BME280;47650;49.848;9.620;2022-08-30T02:45:57;99922.09;;;13.52;58.33
61742;BME280;47650;49.848;9.620;2022-08-30T02:48:23;99953.47;;;13.66;58.47
61742;BME280;47650;49.848;9.620;2022-08-30T02:50:51;99952.81;;;13.64;58.47
61742;BME280;47650;49.848;9.620;2022-08-30T02:53:17;99925.53;;;13.44;58.68
61742;BME280;47650;49.848;9.620;2022-08-30T02:55:45;99958.75;;;13.58;58.71
61742;BME280;47650;49.848;9.620;2022-08-30T02:58:10;99945.56;;;13.48;58.97
61742;BME280;47650;49.848;9.620;2022-08-30T03:00:36;99946.84;;;13.44;58.95
61742;BME280;47650;49.848;9.620;2022-08-30T03:03:03;99962.34;;;13.49;59.02
61742;BME280;47650;49.848;9.620;2022-08-30T03:05:32;99967.84;;;13.47;59.03
61742;BME280;47650;49.848;9.620;2022-08-30T03:07:58;99974.19;;;13.46;59.41
61742;BME280;47650;49.848;9.620;2022-08-30T03:10:25;99969.00;;;13.45;59.61
61742;BME280;47650;49.848;9.620;2022-08-30T03:12:52;99970.13;;;13.42;59.73
61742;BME280;47650;49.848;9.620;2022-08-30T03:15:19;99969.47;;;13.40;59.91
61742;BME280;47650;49.848;9.620;2022-08-30T03:17:46;99964.28;;;13.39;59.79
61742;BME280;47650;49.848;9.620;2022-08-30T03:20:12;99961.09;;;13.35;59.95
61742;BME280;47650;49.848;9.620;2022-08-30T03:22:38;99965.59;;;13.34;59.87
61742;BME280;47650;49.848;9.620;2022-08-30T03:25:04;99956.94;;;13.32;59.56
61742;BME280;47650;49.848;9.620;2022-08-30T03:27:30;99961.50;;;13.30;59.68
61742;BME280;47650;49.848;9.620;2022-08-30T03:29:56;99952.03;;;13.28;59.63
61742;BME280;47650;49.848;9.620;2022-08-30T03:32:21;99947.16;;;13.23;59.89
61742;BME280;47650;49.848;9.620;2022-08-30T03:34:46;99960.31;;;13.25;60.15
61742;BME280;47650;49.848;9.620;2022-08-30T03:37:12;99965.13;;;13.21;60.19
61742;BME280;47650;49.848;9.620;2022-08-30T03:39:37;99973.09;;;13.21;60.20
61742;BME280;47650;49.848;9.620;2022-08-30T03:42:03;99971.75;;;13.17;60.03
61742;BME280;47650;49.848;9.620;2022-08-30T03:44:29;99964.22;;;13.12;59.79
61742;BME280;47650;49.848;9.620;2022-08-30T03:46:55;99960.03;;;13.10;59.75
61742;BME280;47650;49.848;9.620;2022-08-30T03:49:20;99934.94;;;12.94;60.24
61742;BME280;47650;49.848;9.620;2022-08-30T03:51:46;99953.47;;;13.04;60.10
61742;BME280;47650;49.848;9.620;2022-08-30T03:54:13;99957.16;;;13.03;60.37
61742;BME280;47650;49.848;9.620;2022-08-30T03:56:39;99963.31;;;13.04;60.37
61742;BME280;47650;49.848;9.620;2022-08-30T03:59:06;99958.94;;;13.03;60.34
61742;BME280;47650;49.848;9.620;2022-08-30T04:01:31;99950.53;;;12.89;60.46
61742;BME280;47650;49.848;9.620;2022-08-30T04:03:57;99941.50;;;12.82;60.57
61742;BME280;47650;49.848;9.620;2022-08-30T04:06:22;99959.34;;;12.90;60.25
61742;BME280;47650;49.848;9.620;2022-08-30T04:08:49;99960.47;;;12.87;60.58
61742;BME280;47650;49.848;9.620;2022-08-30T04:11:14;99958.13;;;12.84;60.67
61742;BME280;47650;49.848;9.620;2022-08-30T04:13:41;99965.44;;;12.82;60.78
61742;BME280;47650;49.848;9.620;2022-08-30T04:16:06;99956.06;;;12.78;61.07
61742;BME280;47650;49.848;9.620;2022-08-30T04:18:31;99970.06;;;12.80;61.24
61742;BME280;47650;49.848;9.620;2022-08-30T04:20:57;99966.72;;;12.78;61.31
61742;BME280;47650;49.848;9.620;2022-08-30T04:23:22;99960.84;;;12.74;61.29
61742;BME280;47650;49.848;9.620;2022-08-30T04:25:47;99958.34;;;12.73;61.16
61742;BME280;47650;49.848;9.620;2022-08-30T04:28:13;99958.97;;;12.67;61.30
61742;BME280;47650;49.848;9.620;2022-08-30T04:30:41;99972.09;;;12.68;61.18
61742;BME280;47650;49.848;9.620;2022-08-30T04:33:07;99980.94;;;12.69;61.35
61742;BME280;47650;49.848;9.620;2022-08-30T04:35:32;99982.91;;;12.67;61.40
61742;BME280;47650;49.848;9.620;2022-08-30T04:37:57;99988.66;;;12.62;61.38
61742;BME280;47650;49.848;9.620;2022-08-30T04:40:23;99965.31;;;12.56;61.40
61742;BME280;47650;49.848;9.620;2022-08-30T04:42:49;99975.38;;;12.62;61.50
61742;BME280;47650;49.848;9.620;2022-08-30T04:45:19;99990.03;;;12.66;61.62
61742;BME280;47650;49.848;9.620;2022-08-30T04:47:45;99993.94;;;12.72;61.99
61742;BME280;47650;49.848;9.620;2022-08-30T04:50:16;99963.19;;;12.59;61.71
61742;BME280;47650;49.848;9.620;2022-08-30T04:52:42;99989.97;;;12.76;61.97
61742;BME280;47650;49.848;9.620;2022-08-30T04:55:10;99992.88;;;12.83;61.67
61742;BME280;47650;49.848;9.620;2022-08-30T04:57:36;99990.06;;;12.84;61.50
61742;BME280;47650;49.848;9.620;2022-08-30T05:00:05;99987.66;;;12.91;61.50
61742;BME280;47650;49.848;9.620;2022-08-30T05:02:32;99986.19;;;12.96;61.49
61742;BME280;47650;49.848;9.620;2022-08-30T05:04:57;99983.22;;;13.00;61.49
61742;BME280;47650;49.848;9.620;2022-08-30T05:07:41;99995.63;;;13.09;61.11
61742;BME280;47650;49.848;9.620;2022-08-30T05:10:07;99984.44;;;13.05;61.04
61742;BME280;47650;49.848;9.620;2022-08-30T05:12:33;99989.69;;;13.15;60.56
61742;BME280;47650;49.848;9.620;2022-08-30T05:14:58;100002.09;;;13.24;60.50
61742;BME280;47650;49.848;9.620;2022-08-30T05:17:23;99986.56;;;13.20;60.58
61742;BME280;47650;49.848;9.620;2022-08-30T05:19:50;100009.19;;;13.33;60.59
61742;BME280;47650;49.848;9.620;2022-08-30T05:22:15;100001.56;;;13.39;60.26
61742;BME280;47650;49.848;9.620;2022-08-30T05:24:40;100002.78;;;13.44;60.20
61742;BME280;47650;49.848;9.620;2022-08-30T05:27:06;99993.50;;;13.48;60.01
61742;BME280;47650;49.848;9.620;2022-08-30T05:29:37;100003.06;;;13.59;59.85
61742;BME280;47650;49.848;9.620;2022-08-30T05:32:04;100002.13;;;13.68;59.70
61742;BME280;47650;49.848;9.620;2022-08-30T05:34:30;99999.81;;;13.73;59.67
61742;BME280;47650;49.848;9.620;2022-08-30T05:36:56;100004.75;;;13.86;59.42
61742;BME280;47650;49.848;9.620;2022-08-30T05:39:31;99997.94;;;13.92;59.09
61742;BME280;47650;49.848;9.620;2022-08-30T05:42:06;99995.41;;;14.08;59.12
61742;BME280;47650;49.848;9.620;2022-08-30T05:44:32;99980.91;;;14.11;58.81
61742;BME280;47650;49.848;9.620;2022-08-30T05:46:57;99996.34;;;14.34;58.52
61742;BME280;47650;49.848;9.620;2022-08-30T05:49:22;100000.53;;;14.44;58.55
61742;BME280;47650;49.848;9.620;2022-08-30T05:51:48;100002.09;;;14.55;58.29
61742;BME280;47650;49.848;9.620;2022-08-30T05:54:19;99997.00;;;14.70;58.21
61742;BME280;47650;49.848;9.620;2022-08-30T05:56:44;99999.00;;;14.84;58.03
61742;BME280;47650;49.848;9.620;2022-08-30T05:59:12;100002.72;;;15.00;57.93
61742;BME280;47650;49.848;9.620;2022-08-30T06:01:40;99992.06;;;15.16;58.00
61742;BME280;47650;49.848;9.620;2022-08-30T06:04:10;99992.44;;;15.30;57.93
61742;BME280;47650;49.848;9.620;2022-08-30T06:06:37;99989.72;;;15.46;57.02
61742;BME280;47650;49.848;9.620;2022-08-30T06:09:04;99987.06;;;15.63;57.21
61742;BME280;47650;49.848;9.620;2022-08-30T06:11:35;99989.22;;;15.75;57.41
61742;BME280;47650;49.848;9.620;2022-08-30T06:14:05;99990.38;;;15.97;56.43
61742;BME280;47650;49.848;9.620;2022-08-30T06:16:31;99986.63;;;16.15;56.08
61742;BME280;47650;49.848;9.620;2022-08-30T06:18:58;99972.06;;;16.17;55.56
61742;BME280;47650;49.848;9.620;2022-08-30T06:21:30;100006.88;;;16.49;55.59
61742;BME280;47650;49.848;9.620;2022-08-30T06:23:57;99997.59;;;16.68;55.11
61742;BME280;47650;49.848;9.620;2022-08-30T06:26:23;99972.63;;;16.76;54.68
61742;BME280;47650;49.848;9.620;2022-08-30T06:28:49;99991.03;;;17.10;54.12
61742;BME280;47650;49.848;9.620;2022-08-30T06:31:17;99993.03;;;17.31;53.38
61742;BME280;47650;49.848;9.620;2022-08-30T06:33:44;99975.72;;;17.19;52.26
61742;BME280;47650;49.848;9.620;2022-08-30T06:36:12;100014.13;;;17.34;52.85
61742;BME280;47650;49.848;9.620;2022-08-30T06:38:44;99990.16;;;17.56;52.59
61742;BME280;47650;49.848;9.620;2022-08-30T06:41:15;100011.66;;;17.85;51.52
61742;BME280;47650;49.848;9.620;2022-08-30T06:43:43;100011.16;;;18.05;51.19
61742;BME280;47650;49.848;9.620;2022-08-30T06:46:13;100012.28;;;18.26;50.73
61742;BME280;47650;49.848;9.620;2022-08-30T06:48:39;100015.78;;;18.11;50.63
61742;BME280;47650;49.848;9.620;2022-08-30T06:51:06;100007.47;;;18.36;49.76
61742;BME280;47650;49.848;9.620;2022-08-30T06:53:31;99996.41;;;18.60;49.54
61742;BME280;47650;49.848;9.620;2022-08-30T06:56:03;99992.41;;;18.86;48.61
61742;BME280;47650;49.848;9.620;2022-08-30T06:58:31;99970.13;;;18.92;48.12
61742;BME280;47650;49.848;9.620;2022-08-30T07:00:57;99955.84;;;19.13;47.50
61742;BME280;47650;49.848;9.620;2022-08-30T07:03:23;99989.19;;;19.41;47.08
61742;BME280;47650;49.848;9.620;2022-08-30T07:05:53;99980.63;;;19.59;46.21
61742;BME280;47650;49.848;9.620;2022-08-30T07:08:18;99982.84;;;19.27;46.75
61742;BME280;47650;49.848;9.620;2022-08-30T07:10:44;99954.38;;;19.32;46.04
61742;BME280;47650;49.848;9.620;2022-08-30T07:13:16;99977.59;;;19.68;46.49
61742;BME280;47650;49.848;9.620;2022-08-30T07:15:46;99957.72;;;19.91;45.70
61742;BME280;47650;49.848;9.620;2022-08-30T07:18:12;99967.47;;;19.70;45.98
61742;BME280;47650;49.848;9.620;2022-08-30T07:20:57;99975.44;;;19.79;45.31
61742;BME280;47650;49.848;9.620;2022-08-30T07:23:26;99973.88;;;19.41;45.76
61742;BME280;47650;49.848;9.620;2022-08-30T07:25:52;99962.91;;;19.64;45.20
61742;BME280;47650;49.848;9.620;2022-08-30T07:28:21;99975.72;;;20.25;44.10
61742;BME280;47650;49.848;9.620;2022-08-30T07:30:58;99975.53;;;20.75;43.07
61742;BME280;47650;49.848;9.620;2022-08-30T07:33:24;99971.44;;;21.19;42.34
61742;BME280;47650;49.848;9.620;2022-08-30T07:35:51;99969.09;;;20.70;43.13
61742;BME280;47650;49.848;9.620;2022-08-30T07:40:46;99957.97;;;21.86;41.33
61742;BME280;47650;49.848;9.620;2022-08-30T07:43:12;99946.09;;;22.01;40.18
61742;BME280;47650;49.848;9.620;2022-08-30T07:45:37;99926.91;;;22.22;39.43
61742;BME280;47650;49.848;9.620;2022-08-30T07:48:03;99952.19;;;22.48;39.27
61742;BME280;47650;49.848;9.620;2022-08-30T07:50:31;99970.63;;;21.92;39.81
61742;BME280;47650;49.848;9.620;2022-08-30T07:52:56;99965.19;;;21.99;39.96
61742;BME280;47650;49.848;9.620;2022-08-30T07:55:22;99965.13;;;22.39;39.76
61742;BME280;47650;49.848;9.620;2022-08-30T07:57:47;99971.56;;;22.77;38.49
61742;BME280;47650;49.848;9.620;2022-08-30T08:00:13;99969.63;;;22.52;38.74
61742;BME280;47650;49.848;9.620;2022-08-30T08:02:39;99967.56;;;23.24;37.80
61742;BME280;47650;49.848;9.620;2022-08-30T08:05:06;99957.25;;;23.58;37.34
61742;BME280;47650;49.848;9.620;2022-08-30T08:07:34;99970.72;;;23.65;37.24
61742;BME280;47650;49.848;9.620;2022-08-30T08:10:09;99970.66;;;24.34;36.38
61742;BME280;47650;49.848;9.620;2022-08-30T08:12:36;99971.75;;;23.71;36.55
61742;BME280;47650;49.848;9.620;2022-08-30T08:15:02;99962.69;;;24.39;35.59
61742;BME280;47650;49.848;9.620;2022-08-30T08:17:29;99960.50;;;24.66;35.21
61742;BME280;47650;49.848;9.620;2022-08-30T08:19:56;99968.59;;;24.96;34.75
61742;BME280;47650;49.848;9.620;2022-08-30T08:22:21;99969.56;;;25.44;34.10
61742;BME280;47650;49.848;9.620;2022-08-30T08:24:47;99937.59;;;25.58;33.22
61742;BME280;47650;49.848;9.620;2022-08-30T08:27:15;99962.13;;;25.51;33.64
61742;BME280;47650;49.848;9.620;2022-08-30T08:29:40;99952.44;;;25.67;32.88
61742;BME280;47650;49.848;9.620;2022-08-30T08:32:07;99961.78;;;25.60;32.87
61742;BME280;47650;49.848;9.620;2022-08-30T08:34:41;99953.03;;;25.81;33.28
61742;BME280;47650;49.848;9.620;2022-08-30T08:37:06;99955.31;;;26.37;32.45
61742;BME280;47650;49.848;9.620;2022-08-30T08:39:32;99946.78;;;26.86;31.60
61742;BME280;47650;49.848;9.620;2022-08-30T08:42:27;99952.38;;;27.98;29.88
61742;BME280;47650;49.848;9.620;2022-08-30T08:45:11;99945.84;;;29.19;27.79
61742;BME280;47650;49.848;9.620;2022-08-30T08:50:14;99924.50;;;30.90;25.17
61742;BME280;47650;49.848;9.620;2022-08-30T08:52:57;99927.53;;;31.35;24.35
61742;BME280;47650;49.848;9.620;2022-08-30T08:55:48;99922.66;;;33.12;22.41
61742;BME280;47650;49.848;9.620;2022-08-30T08:58:26;99918.97;;;34.48;20.92
61742;BME280;47650;49.848;9.620;2022-08-30T09:00:53;99920.13;;;36.57;18.49
61742;BME280;47650;49.848;9.620;2022-08-30T09:03:22;99910.25;;;36.78;18.13
61742;BME280;47650;49.848;9.620;2022-08-30T09:05:49;99908.69;;;38.29;16.75
61742;BME280;47650;49.848;9.620;2022-08-30T09:08:16;99910.81;;;37.66;16.68
61742;BME280;47650;49.848;9.620;2022-08-30T09:10:52;99909.28;;;37.99;16.46
61742;BME280;47650;49.848;9.620;2022-08-30T09:13:21;99899.63;;;40.35;14.61
61742;BME280;47650;49.848;9.620;2022-08-30T09:15:51;99901.56;;;41.31;13.68
61742;BME280;47650;49.848;9.620;2022-08-30T09:18:47;99882.78;;;41.77;13.66
61742;BME280;47650;49.848;9.620;2022-08-30T09:21:19;99892.78;;;39.81;14.87
61742;BME280;47650;49.848;9.620;2022-08-30T09:23:50;99892.66;;;41.38;13.99
61742;BME280;47650;49.848;9.620;2022-08-30T09:26:33;99888.97;;;42.76;12.50
61742;BME280;47650;49.848;9.620;2022-08-30T09:29:00;99891.22;;;42.30;12.98
61742;BME280;47650;49.848;9.620;2022-08-30T09:31:31;99887.78;;;41.01;13.87
61742;BME280;47650;49.848;9.620;2022-08-30T09:34:02;99881.97;;;41.52;13.36
61742;BME280;47650;49.848;9.620;2022-08-30T09:36:39;99886.59;;;41.35;13.41
61742;BME280;47650;49.848;9.620;2022-08-30T09:39:27;99883.13;;;41.26;13.77
61742;BME280;47650;49.848;9.620;2022-08-30T09:42:19;99827.53;;;40.59;14.17
61742;BME280;47650;49.848;9.620;2022-08-30T09:44:45;99872.44;;;41.28;13.57
61742;BME280;47650;49.848;9.620;2022-08-30T09:47:19;99865.06;;;41.32;13.72
61742;BME280;47650;49.848;9.620;2022-08-30T09:49:47;99876.09;;;41.08;13.64
61742;BME280;47650;49.848;9.620;2022-08-30T09:52:33;99857.13;;;41.22;13.36
61742;BME280;47650;49.848;9.620;2022-08-30T09:55:17;99859.53;;;43.55;12.32
61742;BME280;47650;49.848;9.620;2022-08-30T09:58:23;99832.38;;;43.87;11.66
61742;BME280;47650;49.848;9.620;2022-08-30T10:01:11;99849.31;;;44.14;11.31
61742;BME280;47650;49.848;9.620;2022-08-30T10:04:04;99837.16;;;42.91;12.08
61742;BME280;47650;49.848;9.620;2022-08-30T10:06:51;99830.69;;;43.83;11.50
61742;BME280;47650;49.848;9.620;2022-08-30T10:09:25;99832.66;;;43.82;11.34
61742;BME280;47650;49.848;9.620;2022-08-30T10:12:11;99836.28;;;40.07;13.90
61742;BME280;47650;49.848;9.620;2022-08-30T10:17:55;99817.34;;;43.76;11.10
61742;BME280;47650;49.848;9.620;2022-08-30T10:20:55;99791.94;;;42.98;11.57
61742;BME280;47650;49.848;9.620;2022-08-30T10:23:28;99806.31;;;45.27;10.37
61742;BME280;47650;49.848;9.620;2022-08-30T10:25:57;99808.44;;;46.17;9.51
61742;BME280;47650;49.848;9.620;2022-08-30T10:28:45;99803.22;;;43.69;10.60
61742;BME280;47650;49.848;9.620;2022-08-30T10:31:20;99814.00;;;41.53;12.58
61742;BME280;47650;49.848;9.620;2022-08-30T10:33:52;99814.28;;;41.72;12.53
61742;BME280;47650;49.848;9.620;2022-08-30T10:36:26;99765.53;;;42.63;11.88
61742;BME280;47650;49.848;9.620;2022-08-30T10:38:53;99800.25;;;44.75;10.02
61742;BME280;47650;49.848;9.620;2022-08-30T10:44:11;99790.38;;;45.85;9.30
61742;BME280;47650;49.848;9.620;2022-08-30T10:49:46;99796.41;;;46.17;8.99
61742;BME280;47650;49.848;9.620;2022-08-30T10:52:40;99799.84;;;44.77;9.90
61742;BME280;47650;49.848;9.620;2022-08-30T10:57:58;99788.00;;;45.87;9.79
61742;BME280;47650;49.848;9.620;2022-08-30T11:00:28;99780.53;;;47.11;8.47
61742;BME280;47650;49.848;9.620;2022-08-30T11:05:47;99786.47;;;47.57;8.40
61742;BME280;47650;49.848;9.620;2022-08-30T11:13:42;99776.91;;;46.28;9.06
61742;BME280;47650;49.848;9.620;2022-08-30T11:16:10;99772.22;;;46.05;8.39
61742;BME280;47650;49.848;9.620;2022-08-30T11:18:50;99768.72;;;47.42;8.22
61742;BME280;47650;49.848;9.620;2022-08-30T11:21:36;99763.53;;;48.36;7.68
61742;BME280;47650;49.848;9.620;2022-08-30T11:24:16;99763.19;;;48.77;7.33
61742;BME280;47650;49.848;9.620;2022-08-30T11:29:31;99764.38;;;49.26;6.62
61742;BME280;47650;49.848;9.620;2022-08-30T11:37:38;99757.97;;;49.11;7.10
61742;BME280;47650;49.848;9.620;2022-08-30T11:40:42;99758.63;;;50.51;6.18
61742;BME280;47650;49.848;9.620;2022-08-30T11:52:28;99751.75;;;50.55;6.07
61742;BME280;47650;49.848;9.620;2022-08-30T11:55:20;99728.28;;;51.11;5.85
61742;BME280;47650;49.848;9.620;2022-08-30T11:58:04;99764.53;;;45.15;8.63
61742;BME280;47650;49.848;9.620;2022-08-30T12:00:37;99749.94;;;49.10;6.48
61742;BME280;47650;49.848;9.620;2022-08-30T12:03:26;99735.47;;;50.74;5.61
61742;BME280;47650;49.848;9.620;2022-08-30T12:05:56;99743.63;;;50.65;5.88
61742;BME280;47650;49.848;9.620;2022-08-30T12:08:44;99742.63;;;49.41;6.46
61742;BME280;47650;49.848;9.620;2022-08-30T12:16:14;99743.38;;;50.37;5.73
61742;BME280;47650;49.848;9.620;2022-08-30T12:18:46;99736.75;;;51.49;5.44
61742;BME280;47650;49.848;9.620;2022-08-30T12:21:29;99733.47;;;52.43;4.54
61742;BME280;47650;49.848;9.620;2022-08-30T12:29:12;99727.41;;;49.03;6.48
61742;BME280;47650;49.848;9.620;2022-08-30T12:31:52;99732.53;;;50.36;5.84
61742;BME280;47650;49.848;9.620;2022-08-30T12:34:21;99725.72;;;50.86;5.52
61742;BME280;47650;49.848;9.620;2022-08-30T12:36:52;99712.47;;;51.86;4.95
61742;BME280;47650;49.848;9.620;2022-08-30T12:39:22;99695.66;;;50.09;5.51
61742;BME280;47650;49.848;9.620;2022-08-30T12:41:48;99705.28;;;50.71;5.33
61742;BME280;47650;49.848;9.620;2022-08-30T12:44:21;99709.50;;;51.69;4.69
61742;BME280;47650;49.848;9.620;2022-08-30T12:46:59;99697.59;;;51.82;4.28
61742;BME280;47650;49.848;9.620;2022-08-30T12:49:39;99689.97;;;53.04;4.25
61742;BME280;47650;49.848;9.620;2022-08-30T12:52:32;99703.25;;;49.27;5.85
61742;BME280;47650;49.848;9.620;2022-08-30T13:00:29;99698.44;;;50.68;5.55
61742;BME280;47650;49.848;9.620;2022-08-30T13:02:59;99704.09;;;51.79;5.28
61742;BME280;47650;49.848;9.620;2022-08-30T13:05:28;99695.34;;;52.51;4.83
61742;BME280;47650;49.848;9.620;2022-08-30T13:08:10;99699.16;;;53.72;3.88
61742;BME280;47650;49.848;9.620;2022-08-30T13:10:48;99695.63;;;54.54;3.79
61742;BME280;47650;49.848;9.620;2022-08-30T13:13:26;99686.88;;;55.23;3.42
61742;BME280;47650;49.848;9.620;2022-08-30T13:15:53;99696.03;;;54.19;3.28
61742;BME280;47650;49.848;9.620;2022-08-30T13:20:48;99685.69;;;51.98;4.25
61742;BME280;47650;49.848;9.620;2022-08-30T13:23:22;99684.81;;;53.79;3.57
61742;BME280;47650;49.848;9.620;2022-08-30T13:25:48;99692.97;;;53.77;3.96
61742;BME280;47650;49.848;9.620;2022-08-30T13:28:15;99694.72;;;49.41;5.67
61742;BME280;47650;49.848;9.620;2022-08-30T13:30:41;99682.56;;;52.16;4.63
61742;BME280;47650;49.848;9.620;2022-08-30T13:33:07;99673.81;;;53.25;4.30
61742;BME280;47650;49.848;9.620;2022-08-30T13:35:35;99680.53;;;53.91;3.43
61742;BME280;47650;49.848;9.620;2022-08-30T13:38:02;99681.34;;;53.51;4.13
61742;BME280;47650;49.848;9.620;2022-08-30T13:40:28;99675.03;;;53.04;3.71
61742;BME280;47650;49.848;9.620;2022-08-30T13:42:53;99672.16;;;51.82;4.67
61742;BME280;47650;49.848;9.620;2022-08-30T13:45:19;99676.44;;;51.32;4.91
61742;BME280;47650;49.848;9.620;2022-08-30T13:47:45;99652.34;;;51.20;4.87
61742;BME280;47650;49.848;9.620;2022-08-30T13:50:11;99674.28;;;49.23;5.84
61742;BME280;47650;49.848;9.620;2022-08-30T13:52:36;99668.22;;;47.91;6.49
61742;BME280;47650;49.848;9.620;2022-08-30T13:55:02;99658.72;;;50.93;5.28
61742;BME280;47650;49.848;9.620;2022-08-30T13:57:29;99652.53;;;51.40;4.36
61742;BME280;47650;49.848;9.620;2022-08-30T14:00:12;99662.28;;;48.83;6.15
61742;BME280;47650;49.848;9.620;2022-08-30T14:02:38;99663.16;;;50.46;5.48
61742;BME280;47650;49.848;9.620;2022-08-30T14:05:06;99651.28;;;50.20;5.33
61742;BME280;47650;49.848;9.620;2022-08-30T14:07:31;99649.44;;;51.27;4.98
61742;BME280;47650;49.848;9.620;2022-08-30T14:09:58;99649.66;;;51.09;4.97
61742;BME280;47650;49.848;9.620;2022-08-30T14:12:25;99644.53;;;52.20;4.35
61742;BME280;47650;49.848;9.620;2022-08-30T14:14:52;99641.50;;;51.80;4.59
61742;BME280;47650;49.848;9.620;2022-08-30T14:17:18;99650.88;;;51.43;4.60
61742;BME280;47650;49.848;9.620;2022-08-30T14:19:44;99644.66;;;49.78;5.36